Zion, Arkansas
Current Conditions -  °F | °C
As of 2:35 PM on Sunday 25 Jan 2015 (Local Time) from KBVX Reporting Station
Overcast Overcast  
Wind Chill: 43°   Ceiling: 3900
Heat Index: 48°   Visibility: 10mi
Dew Point: 39°   Wind: 12mph
Humidity: 71%   Direction: 280°W
Pressure: 29.74"   Gusts: 20mph
Location:  36.0615°N, 91.9058°W
Report Text: KBVX 252035Z AUTO 28010G17KT 220V340 10SM SCT033 BKN039 OVC095 09/04 A2974 RMK AO1
Loading
Personal Weather Stations






























Interactive Weather Map New forecast layout! Learn more

10-Day Weather Forecast

Advertisements
Track Severe Weather on mobile